Stabroek, Belgium
Current Conditions -  °F | °C
As of 9:25 PM on Monday 26 Jan 2015 (Local Time) from EHWO Reporting Station
Broken Clouds Broken Clouds  
Wind Chill: 37°   Ceiling: 5100
Heat Index: 43°   Visibility: 6mi
Dew Point: 37°   Wind: 10mph
Humidity: 81%   Direction: 300°WNW
Pressure: 30.18"   Gusts: NA
Location:  51.33°N, 4.37°E
Report Text: EHWO 262025Z AUTO 30009KT 9999 FEW039 SCT044 BKN051 06/03 Q1022 BLU
Loading
Personal Weather Stations






























Interactive Weather Map New forecast layout! Learn more

10-Day Weather Forecast

Advertisements
Track Severe Weather on mobile